Hauptseite
METAR-TAF:

METAR-TAF

Flughäfen :

Yap, Mikronesien

Breite: 09-29N, Länge: 138-05E, Höhe: 28 m

Beobachtung

Neuester Wetterbericht von vor 24 Minuten, um 07:52 UTC
Windstille
Temperatur 29°C
Luftfeuchtigkeit 84%
Luftdruck 1008 hPa
Sichtweite: 19.3 km
Leicht bewölkt in der Höhe von 1600 ft
Durchbrochene Bewölkung in der Höhe von 13000 ft
Geschlossene Wolkendecke in der Höhe von 30000 ft

METAR: PTYA 180752Z 00000KT 12SM FEW016 BKN130 OVC300 29/26 A2977 RMK SLP083 T02920260

Zeit: 18:16 (08:16 UTC)

Prognose

Neuester Wetterbericht von vor 2 Stunden und 56 Minuten, um 05:20 UTC
Gültige Prognose vom 18 um 06 UTC bis 19 um 06 UTC
Wind 5 kt aus unterschiedlichen Richtungen
Sichtweite: 10 km
Aufgelockert bewölkt in der Höhe von 1600 ft
Durchbrochene Bewölkung in der Höhe von 13000 ft
Schauer in der Nähe

TAF: PTYA 180520Z 1806/1906 VRB05KT P6SM VCSH SCT016 BKN130

Wetterbeobachtungen und Prognosen von mehr als 4000 Flughäfen (METAR und TAF Bericht).

Die verfügbaren Stationen werden durch gelbe und rote Markierungen auf der Karte dargestellt.

Führen Sie die Maus auf sie, um den Namen der Station zu sehen.

Darauf klicken, um die Beobachtung von Wetterbeobachtungen und Prognosen zu sehen.

Um die Karte zu ändern : klicken Sie auf den grünen Tasten mit einem schwarzen Kreuz Zum Vergrößern, auf den grünen Button mit einem Gedankenstrich zu verkleinern, oder auf die grünen Pfeile für benachbarte Karten.


METAR-TAF: